createdAt,value
2023-04-21T00:02:11.149Z,16.82
2023-04-21T00:04:39.156Z,16.88
2023-04-21T00:07:08.642Z,16.92
2023-04-21T00:09:36.335Z,16.81
2023-04-21T00:12:04.463Z,16.90
2023-04-21T00:14:32.199Z,16.82
2023-04-21T00:17:00.888Z,16.93
2023-04-21T00:19:29.969Z,16.85
2023-04-21T00:22:01.549Z,16.86
2023-04-21T00:24:29.279Z,16.90
2023-04-21T00:26:57.444Z,16.95
2023-04-21T00:29:25.247Z,16.78
2023-04-21T00:31:53.502Z,16.83
2023-04-21T00:34:21.559Z,16.65
2023-04-21T00:36:49.640Z,16.71
2023-04-21T00:39:17.527Z,16.58
2023-04-21T00:41:45.694Z,16.65
2023-04-21T00:44:13.413Z,16.73
2023-04-21T00:46:43.603Z,16.70
2023-04-21T00:49:13.624Z,16.91
2023-04-21T00:51:41.809Z,16.82
2023-04-21T00:54:11.364Z,16.86
2023-04-21T00:56:39.433Z,16.90
2023-04-21T00:59:07.206Z,16.91
2023-04-21T01:01:36.685Z,17.04
2023-04-21T01:04:05.557Z,16.68
2023-04-21T01:06:37.201Z,16.91
2023-04-21T01:09:07.953Z,17.10
2023-04-21T01:11:38.875Z,17.14
2023-04-21T01:14:08.824Z,16.94
2023-04-21T01:16:38.662Z,17.17
2023-04-21T01:19:06.774Z,17.25
2023-04-21T01:21:41.891Z,17.21
2023-04-21T01:24:09.806Z,17.23
2023-04-21T01:26:37.874Z,17.04
2023-04-21T01:29:06.010Z,17.18
2023-04-21T01:31:34.704Z,17.29
2023-04-21T01:34:05.447Z,17.42
2023-04-21T01:36:33.745Z,17.39
2023-04-21T01:39:01.514Z,17.25
2023-04-21T01:41:31.526Z,17.37
2023-04-21T01:43:59.348Z,17.29
2023-04-21T01:46:27.509Z,17.25
2023-04-21T01:48:55.339Z,17.19
2023-04-21T01:51:23.438Z,17.17
2023-04-21T01:53:51.886Z,17.20
2023-04-21T01:56:20.116Z,17.06
2023-04-21T01:58:47.978Z,16.76
2023-04-21T02:01:16.226Z,17.03
2023-04-21T02:03:44.290Z,17.02
2023-04-21T02:06:14.360Z,16.96
2023-04-21T02:08:42.197Z,16.91
2023-04-21T02:11:10.305Z,17.05
2023-04-21T02:13:41.511Z,17.00
2023-04-21T02:16:14.044Z,16.84
2023-04-21T02:18:42.668Z,17.21
2023-04-21T02:21:10.891Z,17.17
2023-04-21T02:23:38.780Z,17.17
2023-04-21T02:26:06.976Z,17.27
2023-04-21T02:28:34.741Z,17.43
2023-04-21T02:31:03.176Z,17.35
2023-04-21T02:33:35.086Z,17.29
2023-04-21T02:36:03.693Z,17.18
2023-04-21T02:38:31.479Z,17.33
2023-04-21T02:40:59.553Z,17.50
2023-04-21T02:43:27.300Z,17.50
2023-04-21T02:45:56.904Z,17.39
2023-04-21T02:48:24.736Z,17.34
2023-04-21T02:50:53.584Z,17.56
2023-04-21T02:53:21.432Z,17.42
2023-04-21T02:55:49.479Z,17.34
2023-04-21T02:58:17.132Z,17.34
2023-04-21T03:00:45.594Z,17.43
2023-04-21T03:03:13.495Z,17.39
2023-04-21T03:05:44.180Z,17.35
2023-04-21T03:08:11.992Z,17.35
2023-04-21T03:10:40.125Z,17.35
2023-04-21T03:13:08.296Z,17.40
2023-04-21T03:15:36.372Z,17.27
2023-04-21T03:18:04.228Z,17.47
2023-04-21T03:20:32.316Z,17.50
2023-04-21T03:23:00.052Z,17.25
2023-04-21T03:25:28.403Z,17.40
2023-04-21T03:27:56.381Z,17.35
2023-04-21T03:30:26.645Z,17.34
2023-04-21T03:32:56.011Z,17.30
2023-04-21T03:35:24.269Z,17.48
2023-04-21T03:37:51.972Z,17.55
2023-04-21T03:40:19.975Z,17.25
2023-04-21T03:42:49.237Z,17.18
2023-04-21T03:45:19.862Z,17.13
2023-04-21T03:47:47.529Z,17.05
2023-04-21T03:50:15.657Z,16.99
2023-04-21T03:52:43.305Z,17.12
2023-04-21T03:55:12.277Z,17.07
2023-04-21T03:57:41.420Z,17.09
2023-04-21T04:00:13.108Z,17.10
2023-04-21T04:02:41.265Z,17.05
2023-04-21T04:05:09.524Z,16.76
2023-04-21T04:07:37.502Z,16.96
2023-04-21T04:10:06.053Z,16.75
2023-04-21T04:12:33.642Z,16.82
2023-04-21T04:15:01.700Z,16.98
2023-04-21T04:17:29.319Z,16.82
2023-04-21T04:19:57.606Z,16.84
2023-04-21T04:22:25.302Z,16.82
2023-04-21T04:24:53.467Z,16.73
2023-04-21T04:27:21.662Z,16.93
2023-04-21T04:29:49.624Z,16.74
2023-04-21T04:32:17.895Z,16.80
2023-04-21T04:34:45.870Z,16.78
2023-04-21T04:37:13.563Z,16.68
2023-04-21T04:39:42.114Z,16.87
2023-04-21T04:42:10.255Z,16.76
2023-04-21T04:44:38.256Z,16.70
2023-04-21T04:47:06.279Z,16.87
2023-04-21T04:49:34.380Z,17.04
2023-04-21T04:52:02.189Z,16.83
2023-04-21T04:54:30.416Z,16.89
2023-04-21T04:56:59.127Z,17.04
2023-04-21T04:59:29.022Z,17.04
2023-04-21T05:01:57.769Z,17.03
2023-04-21T05:04:26.133Z,17.09
2023-04-21T05:06:54.276Z,17.01
2023-04-21T05:09:22.310Z,17.19
2023-04-21T05:11:49.977Z,17.10
2023-04-21T05:14:18.173Z,17.01
2023-04-21T05:16:46.788Z,17.05
2023-04-21T05:19:17.383Z,17.15
2023-04-21T05:21:46.259Z,17.44
2023-04-21T05:24:14.180Z,17.41
2023-04-21T05:26:42.109Z,17.41
2023-04-21T05:29:11.663Z,17.28
2023-04-21T05:31:39.431Z,17.46
2023-04-21T05:34:07.619Z,17.69
2023-04-21T05:36:35.398Z,17.80
2023-04-21T05:39:03.460Z,17.86
2023-04-21T05:41:31.100Z,17.88
2023-04-21T05:43:59.322Z,17.75
2023-04-21T05:46:27.110Z,17.73
2023-04-21T05:48:55.201Z,17.81
2023-04-21T05:51:22.841Z,17.63
2023-04-21T05:53:51.969Z,17.63
2023-04-21T05:56:19.619Z,17.55
2023-04-21T05:58:47.552Z,17.14
2023-04-21T06:01:15.758Z,16.95
2023-04-21T06:03:43.929Z,17.01
2023-04-21T06:06:11.792Z,17.35
2023-04-21T06:08:40.014Z,17.50
2023-04-21T06:11:07.737Z,17.35
2023-04-21T06:13:38.056Z,17.69
2023-04-21T06:16:06.573Z,17.88
2023-04-21T06:18:34.828Z,17.97
2023-04-21T06:21:02.525Z,18.11
2023-04-21T06:23:32.388Z,18.54
2023-04-21T06:26:01.578Z,18.98
2023-04-21T06:28:29.539Z,19.01
2023-04-21T06:30:57.217Z,19.00
2023-04-21T06:33:25.628Z,19.20
2023-04-21T06:35:53.814Z,19.36
2023-04-21T06:38:22.008Z,19.66
2023-04-21T06:40:49.885Z,19.89
2023-04-21T06:43:18.205Z,19.74
2023-04-21T06:45:45.891Z,19.78
2023-04-21T06:48:14.019Z,20.19
2023-04-21T06:50:44.748Z,20.34
2023-04-21T06:53:12.842Z,20.14
2023-04-21T06:55:40.660Z,20.29
2023-04-21T06:58:08.667Z,20.71
2023-04-21T07:00:36.447Z,20.73
2023-04-21T07:03:04.926Z,20.82
2023-04-21T07:05:32.769Z,20.81
2023-04-21T07:08:01.059Z,20.09
2023-04-21T07:10:29.704Z,20.35
2023-04-21T07:12:57.712Z,20.48
2023-04-21T07:15:25.405Z,21.02
2023-04-21T07:17:53.510Z,21.14
2023-04-21T07:20:21.217Z,21.25
2023-04-21T07:22:49.274Z,21.41
2023-04-21T07:25:16.961Z,21.47
2023-04-21T07:27:44.919Z,21.50
2023-04-21T07:30:12.812Z,21.53
2023-04-21T07:32:41.003Z,21.33
2023-04-21T07:35:08.845Z,21.60
2023-04-21T07:37:36.909Z,21.61
2023-04-21T07:40:04.736Z,21.33
2023-04-21T07:42:33.161Z,21.03
2023-04-21T07:45:02.912Z,21.38
2023-04-21T07:47:31.663Z,21.31
2023-04-21T07:49:59.648Z,21.46
2023-04-21T07:52:27.890Z,21.63
2023-04-21T07:54:55.861Z,21.36
2023-04-21T07:57:23.878Z,21.53
2023-04-21T07:59:51.549Z,21.55
2023-04-21T08:02:19.879Z,21.55
2023-04-21T08:04:48.067Z,21.44
2023-04-21T08:07:16.545Z,21.45
2023-04-21T08:09:44.449Z,21.67
2023-04-21T08:12:12.460Z,21.84
2023-04-21T08:14:40.573Z,21.67
2023-04-21T08:17:08.741Z,21.78
2023-04-21T08:19:36.505Z,21.66
2023-04-21T08:22:04.564Z,21.40
2023-04-21T08:24:32.222Z,21.74
2023-04-21T08:27:02.379Z,21.97
2023-04-21T08:29:30.231Z,21.99
2023-04-21T08:31:58.291Z,22.13
2023-04-21T08:34:27.651Z,22.23
2023-04-21T08:36:56.220Z,22.24
2023-04-21T08:39:24.005Z,21.91
2023-04-21T08:41:52.320Z,21.91
2023-04-21T08:44:21.364Z,21.63
2023-04-21T08:46:50.764Z,21.42
2023-04-21T08:49:20.231Z,21.33
2023-04-21T08:51:48.390Z,21.58
2023-04-21T08:54:16.148Z,21.49
2023-04-21T08:56:44.120Z,21.53
2023-04-21T08:59:11.798Z,21.51
2023-04-21T09:01:58.373Z,21.32
2023-04-21T09:04:26.118Z,21.37
2023-04-21T09:06:54.222Z,21.47
2023-04-21T09:09:22.118Z,21.28
2023-04-21T09:12:00.056Z,21.44
2023-04-21T09:14:34.122Z,21.70
2023-04-21T09:17:03.089Z,21.41
2023-04-21T09:19:33.697Z,21.67
2023-04-21T09:22:01.770Z,21.51
2023-04-21T09:24:29.379Z,21.84
2023-04-21T09:26:57.382Z,22.15
2023-04-21T09:29:25.981Z,22.26
2023-04-21T09:31:53.910Z,22.22
2023-04-21T09:34:25.899Z,22.20
2023-04-21T09:37:03.910Z,22.02
2023-04-21T09:39:45.661Z,22.04
2023-04-21T09:42:17.701Z,22.06
2023-04-21T09:44:53.281Z,21.94
2023-04-21T09:47:29.674Z,22.26
2023-04-21T09:49:58.551Z,22.27
2023-04-21T09:52:28.762Z,22.30
2023-04-21T09:54:58.216Z,22.41
2023-04-21T09:57:26.782Z,22.28
2023-04-21T10:00:13.784Z,22.74
2023-04-21T10:02:48.743Z,23.33
2023-04-21T10:05:16.713Z,22.74
2023-04-21T10:07:45.658Z,23.20
2023-04-21T10:10:17.251Z,24.02
2023-04-21T10:12:45.539Z,24.67
2023-04-21T10:15:33.338Z,24.66
2023-04-21T10:18:14.742Z,24.44
2023-04-21T10:20:51.985Z,24.03
2023-04-21T10:23:26.764Z,24.05
2023-04-21T10:25:54.821Z,24.17
2023-04-21T10:28:38.958Z,24.44
2023-04-21T10:31:20.462Z,24.26
2023-04-21T10:34:07.555Z,24.28
2023-04-21T10:36:38.114Z,24.53
2023-04-21T10:39:06.300Z,24.19
2023-04-21T10:41:35.366Z,24.86
2023-04-21T10:44:12.714Z,24.73
2023-04-21T10:46:50.833Z,25.01
2023-04-21T10:49:26.520Z,25.45
2023-04-21T10:52:00.474Z,24.29
2023-04-21T10:54:29.901Z,24.92
2023-04-21T10:56:58.828Z,24.78
2023-04-21T10:59:27.324Z,24.59
2023-04-21T11:01:55.258Z,24.16
2023-04-21T11:04:24.052Z,24.96
2023-04-21T11:07:10.861Z,25.25
2023-04-21T11:09:39.542Z,25.56
2023-04-21T11:12:11.669Z,26.20
2023-04-21T11:14:40.620Z,25.49
2023-04-21T11:17:12.770Z,26.27
2023-04-21T11:19:40.984Z,25.92
2023-04-21T11:22:08.630Z,25.46
2023-04-21T11:24:36.727Z,26.01
2023-04-21T11:27:08.454Z,26.33
2023-04-21T11:29:36.403Z,26.07
2023-04-21T11:32:06.487Z,26.55
2023-04-21T11:34:34.686Z,26.64
2023-04-21T11:37:02.326Z,25.50
2023-04-21T11:39:30.395Z,25.39
2023-04-21T11:41:58.100Z,25.26
2023-04-21T11:44:40.466Z,26.14
2023-04-21T11:47:15.228Z,27.08
2023-04-21T11:49:46.899Z,27.01
2023-04-21T11:52:27.601Z,27.10
2023-04-21T11:54:57.268Z,27.42
2023-04-21T11:57:25.728Z,26.81
2023-04-21T11:59:53.944Z,25.67
2023-04-21T12:02:23.514Z,27.09
2023-04-21T12:04:59.058Z,26.41
2023-04-21T12:07:27.468Z,25.26
2023-04-21T12:09:55.678Z,24.75
2023-04-21T12:12:26.468Z,25.09
2023-04-21T12:14:54.549Z,25.92
2023-04-21T12:17:22.450Z,26.46
2023-04-21T12:19:50.856Z,26.80
2023-04-21T12:22:19.030Z,26.16
2023-04-21T12:24:47.023Z,26.24
2023-04-21T12:27:14.979Z,25.13
2023-04-21T12:29:43.141Z,25.36
2023-04-21T12:32:11.164Z,25.49
2023-04-21T12:34:39.256Z,25.59
2023-04-21T12:37:07.451Z,25.67
2023-04-21T12:39:35.874Z,25.85
2023-04-21T12:42:03.656Z,24.22
2023-04-21T12:44:31.848Z,24.27
2023-04-21T12:46:59.513Z,24.97
2023-04-21T12:49:27.716Z,26.26
2023-04-21T12:51:55.581Z,25.81
2023-04-21T12:54:23.656Z,25.38
2023-04-21T12:56:51.449Z,25.98
2023-04-21T12:59:19.429Z,26.97
2023-04-21T13:01:47.166Z,25.48
2023-04-21T13:04:15.322Z,26.44
2023-04-21T13:06:43.230Z,26.50
2023-04-21T13:09:11.660Z,27.04
2023-04-21T13:11:39.301Z,26.96
2023-04-21T13:14:07.700Z,26.85
2023-04-21T13:16:35.424Z,27.36
2023-04-21T13:19:04.412Z,27.05
2023-04-21T13:21:32.909Z,27.10
2023-04-21T13:24:02.428Z,28.37
2023-04-21T13:26:32.658Z,28.75
2023-04-21T13:29:01.293Z,26.43
2023-04-21T13:31:29.269Z,27.61
2023-04-21T13:33:57.380Z,28.51
2023-04-21T13:36:25.038Z,28.18
2023-04-21T13:38:55.735Z,27.31
2023-04-21T13:41:23.397Z,26.73
2023-04-21T13:43:51.505Z,26.33
2023-04-21T13:46:20.175Z,25.79
2023-04-21T13:48:50.382Z,25.61
2023-04-21T13:51:18.585Z,25.26
2023-04-21T13:53:46.603Z,25.17
2023-04-21T13:56:14.361Z,24.79
2023-04-21T13:58:42.318Z,24.78
2023-04-21T14:01:09.999Z,25.02
2023-04-21T14:03:38.066Z,25.40
2023-04-21T14:06:05.928Z,24.99
2023-04-21T14:08:34.032Z,25.02
2023-04-21T14:11:03.313Z,25.24
2023-04-21T14:13:37.876Z,26.08
2023-04-21T14:16:07.832Z,26.20
2023-04-21T14:18:36.778Z,26.91
2023-04-21T14:21:04.603Z,27.37
2023-04-21T14:23:32.856Z,27.36
2023-04-21T14:26:01.042Z,27.76
2023-04-21T14:28:29.016Z,28.18
2023-04-21T14:30:56.708Z,28.89
2023-04-21T14:33:24.712Z,28.72
2023-04-21T14:35:52.413Z,29.02
2023-04-21T14:38:20.427Z,28.61
2023-04-21T14:40:50.138Z,28.93
2023-04-21T14:43:18.101Z,29.12
2023-04-21T14:45:45.905Z,29.02
2023-04-21T14:48:16.835Z,29.13
2023-04-21T14:50:44.520Z,28.64
2023-04-21T14:53:12.603Z,28.79
2023-04-21T14:55:40.331Z,29.09
2023-04-21T14:58:08.335Z,28.73
2023-04-21T15:00:36.760Z,28.95
2023-04-21T15:03:05.176Z,28.35
2023-04-21T15:05:35.089Z,28.72
2023-04-21T15:08:03.305Z,28.76
2023-04-21T15:10:32.607Z,28.46
2023-04-21T15:13:01.025Z,28.34
2023-04-21T15:15:28.738Z,27.96
2023-04-21T15:17:56.749Z,28.05
2023-04-21T15:20:32.721Z,27.93
2023-04-21T15:23:12.159Z,27.78
2023-04-21T15:25:40.495Z,27.99
2023-04-21T15:28:08.858Z,28.17
2023-04-21T15:30:36.621Z,28.43
2023-04-21T15:33:04.811Z,27.98
2023-04-21T15:35:32.702Z,28.30
2023-04-21T15:38:00.819Z,28.47
2023-04-21T15:40:28.527Z,28.58
2023-04-21T15:42:56.549Z,28.24
2023-04-21T15:45:24.118Z,27.85
2023-04-21T15:47:52.212Z,27.77
2023-04-21T15:50:20.132Z,27.47
2023-04-21T15:52:48.184Z,26.61
2023-04-21T15:55:16.181Z,26.15
2023-04-21T15:57:44.515Z,26.58
2023-04-21T16:00:12.936Z,27.12
2023-04-21T16:02:41.184Z,26.73
2023-04-21T16:05:09.418Z,26.56
2023-04-21T16:07:37.496Z,26.68
2023-04-21T16:10:05.319Z,26.39
2023-04-21T16:12:33.380Z,25.98
2023-04-21T16:15:09.281Z,25.52
2023-04-21T16:17:48.964Z,25.27
2023-04-21T16:20:16.738Z,25.13
2023-04-21T16:22:44.949Z,25.14
2023-04-21T16:25:14.372Z,25.08
2023-04-21T16:27:42.760Z,24.63
2023-04-21T16:30:10.721Z,24.89
2023-04-21T16:32:38.965Z,24.80
2023-04-21T16:35:10.250Z,24.84
2023-04-21T16:37:40.753Z,24.56
2023-04-21T16:40:09.198Z,24.60
2023-04-21T16:42:37.584Z,24.39
2023-04-21T16:45:05.977Z,24.41
2023-04-21T16:47:41.264Z,23.96
2023-04-21T16:50:10.194Z,23.51
2023-04-21T16:52:38.917Z,23.90
2023-04-21T16:55:06.750Z,23.90
2023-04-21T16:57:35.091Z,23.93
2023-04-21T17:00:07.409Z,23.68
2023-04-21T17:02:35.639Z,23.37
2023-04-21T17:05:04.588Z,23.49
2023-04-21T17:07:32.604Z,23.22
2023-04-21T17:10:00.295Z,23.49
2023-04-21T17:12:28.387Z,23.68
2023-04-21T17:14:56.345Z,23.73
2023-04-21T17:17:24.379Z,23.41
2023-04-21T17:19:52.930Z,23.27
2023-04-21T17:22:21.353Z,22.98
2023-04-21T17:24:53.852Z,23.02
2023-04-21T17:27:22.331Z,23.16
2023-04-21T17:29:50.140Z,23.14
2023-04-21T17:32:18.477Z,22.86
2023-04-21T17:34:46.259Z,22.85
2023-04-21T17:37:14.327Z,22.66
2023-04-21T17:39:42.118Z,22.84
2023-04-21T17:42:10.086Z,22.87
2023-04-21T17:44:37.958Z,22.72
2023-04-21T17:47:08.526Z,22.51
2023-04-21T17:49:36.854Z,22.60
2023-04-21T17:52:05.809Z,22.58
2023-04-21T17:54:33.490Z,22.30
2023-04-21T17:57:02.131Z,22.31
2023-04-21T17:59:29.881Z,22.39
2023-04-21T18:01:59.398Z,22.39
2023-04-21T18:04:30.112Z,22.32
2023-04-21T18:06:59.225Z,22.35
2023-04-21T18:09:26.952Z,22.30
2023-04-21T18:11:54.928Z,22.25
2023-04-21T18:14:23.311Z,22.38
2023-04-21T18:16:51.619Z,22.07
2023-04-21T18:19:19.469Z,22.16
2023-04-21T18:21:47.589Z,22.15
2023-04-21T18:24:15.472Z,22.45
2023-04-21T18:26:43.555Z,22.32
2023-04-21T18:29:11.322Z,22.02
2023-04-21T18:31:39.657Z,22.14
2023-04-21T18:34:08.886Z,21.94
2023-04-21T18:36:38.596Z,21.99
2023-04-21T18:39:06.650Z,21.99
2023-04-21T18:41:36.732Z,21.89
2023-04-21T18:44:08.025Z,21.55
2023-04-21T18:46:36.105Z,21.45
2023-04-21T18:49:03.775Z,21.61
2023-04-21T18:51:32.720Z,21.78
2023-04-21T18:54:00.327Z,21.56
2023-04-21T18:56:28.792Z,21.46
2023-04-21T18:58:56.932Z,21.24
2023-04-21T19:01:25.031Z,21.19
2023-04-21T19:03:53.393Z,21.19
2023-04-21T19:06:21.576Z,21.33
2023-04-21T19:08:51.344Z,21.38
2023-04-21T19:11:19.378Z,21.38
2023-04-21T19:13:48.366Z,21.58
2023-04-21T19:16:16.865Z,21.40
2023-04-21T19:18:44.632Z,21.59
2023-04-21T19:21:13.903Z,21.39
2023-04-21T19:23:42.058Z,21.35
2023-04-21T19:26:12.124Z,21.19
2023-04-21T19:28:40.781Z,21.04
2023-04-21T19:31:09.443Z,21.06
2023-04-21T19:37:55.983Z,21.03
2023-04-21T19:40:24.645Z,21.19
2023-04-21T19:42:52.688Z,20.96
2023-04-21T19:45:20.983Z,21.07
2023-04-21T19:47:49.130Z,20.77
2023-04-21T19:50:17.358Z,20.90
2023-04-21T19:52:46.794Z,20.82
2023-04-21T19:55:15.135Z,20.74
2023-04-21T19:57:43.052Z,20.67
2023-04-21T20:00:11.718Z,20.71
2023-04-21T20:02:42.786Z,20.75
2023-04-21T20:05:11.299Z,20.68
2023-04-21T20:07:39.888Z,20.63
2023-04-21T20:10:08.821Z,20.67
2023-04-21T20:12:36.592Z,20.62
2023-04-21T20:15:05.901Z,20.56
2023-04-21T20:17:33.861Z,20.50
2023-04-21T20:20:02.188Z,20.29
2023-04-21T20:22:30.006Z,20.23
2023-04-21T20:24:58.379Z,20.11
2023-04-21T20:27:26.252Z,20.09
2023-04-21T20:29:54.882Z,20.14
2023-04-21T20:32:22.832Z,20.11
2023-04-21T20:34:53.654Z,19.95
2023-04-21T20:37:23.513Z,19.87
2023-04-21T20:39:51.821Z,19.78
2023-04-21T20:42:22.034Z,19.90
2023-04-21T20:44:50.314Z,19.75
2023-04-21T20:47:18.392Z,19.66
2023-04-21T20:49:47.699Z,19.67
2023-04-21T20:52:16.248Z,19.68
2023-04-21T20:54:44.561Z,19.91
2023-04-21T20:57:12.477Z,19.57
2023-04-21T21:02:09.490Z,19.61
2023-04-21T21:04:37.964Z,19.31
2023-04-21T21:07:06.563Z,19.20
2023-04-21T21:09:35.225Z,19.32
2023-04-21T21:12:03.262Z,19.33
2023-04-21T21:14:31.766Z,19.36
2023-04-21T21:16:59.731Z,19.31
2023-04-21T21:19:28.168Z,19.52
2023-04-21T21:21:56.156Z,19.34
2023-04-21T21:24:26.534Z,19.25
2023-04-21T21:26:54.457Z,19.13
2023-04-21T21:29:22.632Z,19.02
2023-04-21T21:31:50.569Z,19.09
2023-04-21T21:34:18.904Z,18.96
2023-04-21T21:36:46.740Z,19.21
2023-04-21T21:39:15.795Z,18.88
2023-04-21T21:41:43.648Z,19.15
2023-04-21T21:44:11.977Z,19.11
2023-04-21T21:46:40.212Z,18.94
2023-04-21T21:49:08.714Z,18.75
2023-04-21T21:51:36.634Z,18.92
2023-04-21T21:54:05.709Z,18.82
2023-04-21T21:56:33.640Z,18.77
2023-04-21T21:59:01.786Z,18.99
2023-04-21T22:01:29.696Z,18.91
2023-04-21T22:03:57.966Z,18.77
2023-04-21T22:06:28.034Z,18.77
2023-04-21T22:08:56.283Z,18.70
2023-04-21T22:11:24.303Z,18.83
2023-04-21T22:13:52.512Z,19.10
2023-04-21T22:16:20.341Z,18.98
2023-04-21T22:18:48.810Z,18.88
2023-04-21T22:21:16.665Z,18.75
2023-04-21T22:23:45.023Z,18.62
2023-04-21T22:26:12.985Z,18.43
2023-04-21T22:28:42.064Z,18.53
2023-04-21T22:31:10.814Z,18.55
2023-04-21T22:33:39.117Z,18.33
2023-04-21T22:36:09.802Z,18.43
2023-04-21T22:38:39.262Z,18.39
2023-04-21T22:41:08.129Z,18.40
2023-04-21T22:43:36.657Z,18.35
2023-04-21T22:46:04.877Z,18.16
2023-04-21T22:48:33.763Z,18.42
2023-04-21T22:51:01.848Z,18.45
2023-04-21T22:53:29.962Z,18.30
2023-04-21T22:55:57.811Z,18.38
2023-04-21T22:58:26.659Z,18.42
2023-04-21T23:00:54.641Z,18.16
2023-04-21T23:03:23.345Z,18.22
2023-04-21T23:05:51.432Z,18.09
2023-04-21T23:08:19.562Z,18.22
2023-04-21T23:10:47.908Z,18.29
2023-04-21T23:13:16.106Z,18.30
2023-04-21T23:15:43.914Z,18.26
2023-04-21T23:18:12.131Z,18.44
2023-04-21T23:20:39.970Z,18.25
2023-04-21T23:23:08.102Z,18.26
2023-04-21T23:25:36.397Z,18.12
2023-04-21T23:28:04.592Z,18.13
2023-04-21T23:30:32.366Z,18.03
2023-04-21T23:33:01.158Z,18.21
2023-04-21T23:35:29.115Z,18.10
2023-04-21T23:37:57.235Z,18.34
2023-04-21T23:40:24.861Z,18.34
2023-04-21T23:42:52.822Z,18.21
2023-04-21T23:45:20.523Z,18.20
2023-04-21T23:47:48.477Z,18.31
2023-04-21T23:50:16.145Z,18.09
2023-04-21T23:52:45.286Z,17.95
2023-04-21T23:55:12.953Z,17.96
2023-04-21T23:57:40.934Z,17.89
